Time;durP1;ratioP1;P1;durP2;ratioP2;P2;SDS_P1;SDS_P2;PMS_P1;PMS_P2;Temp;Humidity;BMP_temperature;BMP_pressure;BME280_temperature;BME280_humidity;BME280_pressure;Samples;Min_cycle;Max_cycle;Signal;HPM_P1;HPM_P2
2021/03/30 00:01:07;;;;;;;34.70;9.52;;;9.70;92.40;;;;;;5067155;28;20021;-71
2021/03/30 00:03:33;;;;;;;36.30;10.55;;;9.60;92.50;;;;;;5064375;28;20365;-72
2021/03/30 00:05:58;;;;;;;31.60;9.68;;;9.70;92.60;;;;;;5063844;28;20021;-72
2021/03/30 00:08:24;;;;;;;28.30;9.45;;;9.70;92.50;;;;;;5046189;28;20020;-72
2021/03/30 00:10:50;;;;;;;33.20;9.77;;;9.60;92.40;;;;;;5062848;28;20013;-72
2021/03/30 00:13:15;;;;;;;29.92;8.15;;;9.60;92.50;;;;;;5063581;28;20036;-72
2021/03/30 00:15:41;;;;;;;24.90;7.97;;;9.70;92.60;;;;;;5046620;28;20024;-73
2021/03/30 00:18:07;;;;;;;25.73;8.23;;;9.70;92.60;;;;;;5063051;28;20027;-73
2021/03/30 00:20:32;;;;;;;29.45;8.95;;;9.70;92.40;;;;;;5046209;28;20019;-73
2021/03/30 00:22:58;;;;;;;25.30;9.45;;;9.70;92.40;;;;;;5062649;28;20016;-72
2021/03/30 00:25:24;;;;;;;26.75;7.88;;;9.60;92.30;;;;;;5046384;28;20211;-72
2021/03/30 00:27:49;;;;;;;29.60;8.43;;;9.50;92.60;;;;;;5045834;28;20024;-73
2021/03/30 00:30:16;;;;;;;30.27;8.90;;;9.50;92.70;;;;;;5054900;28;20017;-72
2021/03/30 00:32:41;;;;;;;32.83;8.68;;;9.50;92.80;;;;;;5062872;28;20359;-72
2021/03/30 00:35:08;;;;;;;31.15;8.88;;;9.60;92.70;;;;;;5062558;28;20021;-72
2021/03/30 00:37:33;;;;;;;28.35;8.82;;;9.60;92.70;;;;;;5045221;28;20025;-73
2021/03/30 00:39:59;;;;;;;30.63;8.85;;;9.70;92.60;;;;;;5026295;28;20006;-72
2021/03/30 00:42:25;;;;;;;23.67;7.65;;;9.70;92.40;;;;;;5031188;28;20013;-72
2021/03/30 00:44:51;;;;;;;27.08;8.20;;;9.70;92.40;;;;;;5062203;28;20059;-72
2021/03/30 00:47:17;;;;;;;23.88;6.88;;;9.70;92.40;;;;;;5063571;28;20017;-72
2021/03/30 00:49:43;;;;;;;21.05;6.68;;;9.80;92.40;;;;;;5063391;28;20012;-72
2021/03/30 00:52:09;;;;;;;19.48;6.25;;;9.90;92.30;;;;;;5068013;28;20036;-72
2021/03/30 00:54:35;;;;;;;22.98;5.97;;;9.90;92.20;;;;;;5068674;28;20060;-72
2021/03/30 00:57:01;;;;;;;28.10;7.25;;;9.90;92.20;;;;;;5069406;28;20041;-72
2021/03/30 00:59:26;;;;;;;23.58;6.63;;;9.90;92.10;;;;;;5066053;28;20005;-71
2021/03/30 01:01:52;;;;;;;22.25;6.63;;;9.90;92.10;;;;;;5064630;28;20058;-72
2021/03/30 01:04:17;;;;;;;19.95;6.28;;;10.00;92.10;;;;;;5088592;28;20019;-71
2021/03/30 01:06:43;;;;;;;20.38;6.68;;;9.90;92.10;;;;;;5090614;28;20004;-72
2021/03/30 01:09:28;;;;;;;20.73;5.97;;;10.00;92.10;;;;;;5060204;28;20017;-72
2021/03/30 01:12:12;;;;;;;19.83;5.40;;;10.00;92.00;;;;;;5031572;28;20017;-72
2021/03/30 01:15:16;;;;;;;19.50;5.35;;;10.10;91.90;;;;;;5042748;28;20013;-71
2021/03/30 01:18:04;;;;;;;14.65;4.97;;;10.10;91.70;;;;;;5012251;28;20037;-71
2021/03/30 01:20:33;;;;;;;21.55;6.30;;;10.00;91.70;;;;;;5047728;28;20013;-72
2021/03/30 01:23:11;;;;;;;20.52;6.70;;;10.00;91.70;;;;;;5049144;28;20013;-72
2021/03/30 01:25:38;;;;;;;24.80;7.80;;;10.00;91.90;;;;;;5034015;28;20242;-72
2021/03/30 01:28:19;;;;;;;29.85;7.90;;;9.90;91.90;;;;;;5048560;28;20270;-72
2021/03/30 01:30:45;;;;;;;28.25;8.18;;;9.90;91.90;;;;;;5047497;28;20018;-72
2021/03/30 01:33:12;;;;;;;25.00;6.85;;;9.90;92.00;;;;;;5046265;28;20104;-72
2021/03/30 01:35:38;;;;;;;20.30;6.90;;;9.80;92.00;;;;;;5030064;28;20005;-72
2021/03/30 01:38:04;;;;;;;23.25;7.07;;;9.80;92.00;;;;;;5077645;28;20241;-72
2021/03/30 01:40:31;;;;;;;28.20;7.10;;;9.80;92.10;;;;;;5085727;28;20009;-72
2021/03/30 01:42:57;;;;;;;27.38;7.95;;;9.80;92.10;;;;;;5069240;28;20009;-73
2021/03/30 01:45:23;;;;;;;22.63;6.88;;;9.70;92.20;;;;;;5086345;28;20233;-73
2021/03/30 01:47:49;;;;;;;26.80;7.10;;;9.80;92.30;;;;;;5069854;28;20015;-71
2021/03/30 01:50:15;;;;;;;26.50;6.93;;;9.80;92.30;;;;;;5085587;28;20062;-73
2021/03/30 01:52:41;;;;;;;23.05;6.85;;;9.80;92.20;;;;;;5085186;28;20116;-71
2021/03/30 01:55:08;;;;;;;20.73;6.38;;;9.90;92.20;;;;;;5085162;28;20075;-72
2021/03/30 01:57:34;;;;;;;16.13;5.13;;;9.90;92.20;;;;;;5085113;28;20020;-72
2021/03/30 01:59:59;;;;;;;19.35;5.82;;;9.90;92.10;;;;;;5085195;28;20318;-72
2021/03/30 02:02:25;;;;;;;17.77;4.80;;;9.90;92.00;;;;;;5085123;28;20311;-72
2021/03/30 02:04:50;;;;;;;19.08;5.38;;;10.00;92.00;;;;;;5069466;28;20269;-73
2021/03/30 02:07:16;;;;;;;17.77;5.53;;;10.00;92.00;;;;;;5069365;28;20017;-73
2021/03/30 02:09:45;;;;;;;20.40;6.20;;;10.10;91.90;;;;;;5086280;28;20008;-73
2021/03/30 02:12:15;;;;;;;24.38;7.15;;;10.10;92.00;;;;;;5069417;28;20119;-73
2021/03/30 02:14:41;;;;;;;23.23;6.50;;;10.20;92.00;;;;;;5085249;28;20042;-71
2021/03/30 02:17:26;;;;;;;21.83;6.65;;;10.30;91.90;;;;;;5084768;28;20055;-71
2021/03/30 02:20:12;;;;;;;15.50;5.47;;;10.20;91.70;;;;;;5084763;28;20005;-71
2021/03/30 02:22:42;;;;;;;20.25;6.15;;;10.20;91.70;;;;;;5067847;28;20206;-72
2021/03/30 02:25:08;;;;;;;26.75;7.80;;;10.20;91.50;;;;;;5084423;28;20016;-71
2021/03/30 02:27:38;;;;;;;18.98;6.15;;;10.10;91.60;;;;;;5084673;28;20076;-72
2021/03/30 02:30:05;;;;;;;23.30;7.38;;;10.10;91.60;;;;;;5068058;28;20024;-72
2021/03/30 02:32:30;;;;;;;17.20;5.80;;;10.00;91.80;;;;;;5067239;28;20018;-72
2021/03/30 02:34:56;;;;;;;22.05;7.00;;;10.00;91.80;;;;;;5084628;28;20273;-71
2021/03/30 02:37:21;;;;;;;27.95;8.20;;;10.00;91.90;;;;;;5078834;28;20028;-72
2021/03/30 02:39:48;;;;;;;23.20;7.63;;;10.10;91.90;;;;;;5084579;28;20008;-73
2021/03/30 02:42:13;;;;;;;23.83;6.97;;;10.10;91.90;;;;;;5067571;28;20261;-73
2021/03/30 02:44:40;;;;;;;26.75;7.88;;;10.10;91.90;;;;;;5067883;28;20005;-72
2021/03/30 02:47:05;;;;;;;24.13;8.32;;;10.20;91.90;;;;;;5084664;28;20020;-72
2021/03/30 02:49:31;;;;;;;19.75;7.47;;;10.20;91.90;;;;;;5084868;28;20210;-72
2021/03/30 02:51:57;;;;;;;25.23;8.20;;;10.30;91.80;;;;;;5084529;28;20020;-71
2021/03/30 02:54:23;;;;;;;26.33;7.53;;;10.20;91.80;;;;;;5084244;28;20044;-72
2021/03/30 02:56:49;;;;;;;22.48;7.30;;;10.30;91.80;;;;;;5068693;28;20278;-71
2021/03/30 02:59:16;;;;;;;21.38;7.50;;;10.30;91.60;;;;;;5087729;28;20005;-71
2021/03/30 03:01:41;;;;;;;24.75;7.43;;;10.30;91.60;;;;;;5086864;28;20070;-72
2021/03/30 03:04:07;;;;;;;28.25;8.75;;;10.30;91.60;;;;;;5087378;28;20278;-72
2021/03/30 03:06:33;;;;;;;19.70;6.78;;;10.20;91.70;;;;;;5085745;28;20320;-72
2021/03/30 03:08:58;;;;;;;21.48;6.80;;;10.20;91.60;;;;;;5067877;28;20012;-72
2021/03/30 03:11:24;;;;;;;19.95;6.05;;;10.30;91.60;;;;;;5056568;28;20021;-72
2021/03/30 03:13:50;;;;;;;28.40;7.85;;;10.20;91.60;;;;;;5044805;28;20082;-72
2021/03/30 03:16:19;;;;;;;25.42;7.25;;;10.20;91.60;;;;;;5049470;28;20044;-72
2021/03/30 03:18:45;;;;;;;24.67;7.70;;;10.10;91.60;;;;;;5028613;28;20010;-71
2021/03/30 03:21:11;;;;;;;18.67;6.30;;;10.10;91.80;;;;;;5044643;28;20074;-72
2021/03/30 03:23:37;;;;;;;18.38;5.80;;;10.10;91.70;;;;;;5027655;28;20058;-72
2021/03/30 03:26:03;;;;;;;18.00;6.15;;;10.10;91.60;;;;;;5044006;28;20295;-72
2021/03/30 03:28:29;;;;;;;13.38;4.45;;;10.00;91.50;;;;;;5027444;28;20014;-72
2021/03/30 03:30:54;;;;;;;12.40;4.45;;;10.00;91.60;;;;;;5044925;28;20082;-72
2021/03/30 03:33:20;;;;;;;12.43;4.32;;;10.00;91.60;;;;;;5028832;28;20207;-72
2021/03/30 03:36:09;;;;;;;16.30;4.40;;;10.00;91.70;;;;;;5047572;28;20377;-72
2021/03/30 03:38:38;;;;;;;14.23;4.22;;;10.00;91.80;;;;;;5035338;28;20005;-72
2021/03/30 03:41:06;;;;;;;15.02;4.63;;;10.00;91.80;;;;;;5051752;28;20010;-72
2021/03/30 03:43:32;;;;;;;15.52;5.30;;;10.00;91.70;;;;;;5037291;28;20012;-72
2021/03/30 03:45:57;;;;;;;14.15;4.45;;;9.90;91.60;;;;;;5066972;28;20017;-72
2021/03/30 03:48:23;;;;;;;12.40;4.40;;;9.90;91.60;;;;;;5064003;28;20062;-72
2021/03/30 03:50:48;;;;;;;8.13;3.67;;;9.80;91.50;;;;;;5064115;28;20031;-72
2021/03/30 03:53:14;;;;;;;15.80;5.47;;;9.70;91.50;;;;;;5046834;28;20100;-72
2021/03/30 03:55:47;;;;;;;14.93;5.63;;;9.60;91.50;;;;;;5063402;28;20058;-72
2021/03/30 03:58:14;;;;;;;16.88;5.72;;;9.60;91.70;;;;;;5046856;28;20021;-73
2021/03/30 04:00:39;;;;;;;18.25;7.65;;;9.50;91.70;;;;;;5063239;28;20009;-72
2021/03/30 04:03:09;;;;;;;20.08;7.22;;;9.50;91.80;;;;;;5046341;28;20012;-72
2021/03/30 04:05:38;;;;;;;17.25;5.78;;;9.50;92.00;;;;;;5063296;28;20076;-73
2021/03/30 04:08:04;;;;;;;13.63;4.72;;;9.50;92.10;;;;;;5046364;28;20008;-73
2021/03/30 04:10:30;;;;;;;13.70;6.15;;;9.50;92.10;;;;;;5063389;28;20307;-73
2021/03/30 04:12:55;;;;;;;17.35;5.82;;;9.50;92.10;;;;;;5063462;28;20009;-73
2021/03/30 04:15:22;;;;;;;19.80;6.57;;;9.50;92.10;;;;;;5063406;28;20048;-72
2021/03/30 04:17:48;;;;;;;21.08;6.78;;;9.40;92.10;;;;;;5062729;28;20311;-71
2021/03/30 04:20:15;;;;;;;26.25;7.63;;;9.50;92.30;;;;;;5046484;28;20024;-72
2021/03/30 04:22:43;;;;;;;23.33;8.27;;;9.60;92.30;;;;;;5063567;28;20013;-72
2021/03/30 04:25:09;;;;;;;17.48;6.80;;;9.60;92.20;;;;;;5067324;28;20016;-73
2021/03/30 04:27:35;;;;;;;22.15;8.00;;;9.50;92.20;;;;;;5052043;28;20017;-71
2021/03/30 04:30:00;;;;;;;16.67;6.32;;;9.50;92.20;;;;;;5068592;28;20059;-72
2021/03/30 04:32:26;;;;;;;15.55;5.80;;;9.60;92.30;;;;;;5050723;28;20032;-72
2021/03/30 04:34:52;;;;;;;13.88;4.80;;;9.70;92.40;;;;;;5069054;28;20062;-71
2021/03/30 04:37:17;;;;;;;19.10;6.75;;;9.70;92.20;;;;;;5076142;28;20087;-72
2021/03/30 04:39:43;;;;;;;14.55;5.13;;;9.70;92.20;;;;;;5082587;28;20333;-73
2021/03/30 04:42:09;;;;;;;16.20;5.00;;;9.70;92.00;;;;;;5065736;28;20012;-71
2021/03/30 04:44:34;;;;;;;16.48;5.55;;;9.70;91.90;;;;;;5082342;28;20065;-71
2021/03/30 04:47:00;;;;;;;10.70;4.32;;;9.70;91.90;;;;;;5082616;28;20329;-72
2021/03/30 04:49:25;;;;;;;15.20;5.10;;;9.70;92.30;;;;;;5082925;28;20013;-71
2021/03/30 04:51:51;;;;;;;17.98;5.95;;;9.70;91.90;;;;;;5065956;28;20016;-72
2021/03/30 04:54:17;;;;;;;20.20;7.50;;;9.70;91.80;;;;;;5082505;28;20044;-73
2021/03/30 04:56:42;;;;;;;23.63;8.20;;;9.70;91.90;;;;;;5083357;28;20017;-72
2021/03/30 04:59:08;;;;;;;17.88;7.38;;;9.60;92.10;;;;;;5083888;28;20008;-72
2021/03/30 05:01:33;;;;;;;15.57;6.40;;;9.60;92.20;;;;;;5065771;28;20013;-73
2021/03/30 05:03:59;;;;;;;17.08;6.25;;;9.60;92.20;;;;;;5082461;28;20035;-72
2021/03/30 05:06:25;;;;;;;16.10;5.43;;;9.50;92.10;;;;;;5083609;28;20248;-72
2021/03/30 05:08:50;;;;;;;15.75;5.82;;;9.40;92.20;;;;;;5082167;28;20057;-71
2021/03/30 05:11:16;;;;;;;14.70;5.10;;;9.40;92.30;;;;;;5081873;28;20028;-72
2021/03/30 05:13:42;;;;;;;19.92;6.78;;;9.40;92.40;;;;;;5065337;28;20012;-72
2021/03/30 05:16:07;;;;;;;13.10;4.03;;;9.40;92.50;;;;;;5064961;28;20321;-71
2021/03/30 05:18:33;;;;;;;16.85;5.50;;;9.40;92.50;;;;;;5065262;28;20066;-72
2021/03/30 05:20:59;;;;;;;14.38;4.95;;;9.40;92.40;;;;;;5082471;28;20004;-72
2021/03/30 05:23:24;;;;;;;19.65;6.25;;;9.40;92.50;;;;;;5075405;28;20021;-72
2021/03/30 05:25:50;;;;;;;14.82;5.45;;;9.40;92.50;;;;;;5062740;28;20132;-71
2021/03/30 05:28:15;;;;;;;12.20;5.18;;;9.40;92.50;;;;;;5061451;28;20020;-71
2021/03/30 05:30:41;;;;;;;15.48;5.22;;;9.40;92.50;;;;;;5061210;28;20077;-71
2021/03/30 05:33:07;;;;;;;12.88;5.50;;;9.40;92.50;;;;;;5035582;28;20017;-71
2021/03/30 05:35:32;;;;;;;15.00;6.03;;;9.40;92.40;;;;;;5052383;28;20218;-72
2021/03/30 05:37:58;;;;;;;16.83;5.55;;;9.40;92.30;;;;;;5061286;28;20017;-72
2021/03/30 05:40:24;;;;;;;18.15;7.60;;;9.40;92.30;;;;;;5041015;28;20016;-72
2021/03/30 05:42:50;;;;;;;24.02;8.65;;;9.40;92.30;;;;;;5036408;28;20005;-72
2021/03/30 05:45:17;;;;;;;29.15;9.73;;;9.40;92.30;;;;;;5049611;28;20012;-73
2021/03/30 05:47:43;;;;;;;18.10;7.18;;;9.40;92.40;;;;;;5058443;28;20036;-71
2021/03/30 05:50:14;;;;;;;14.23;5.63;;;9.40;92.50;;;;;;5041907;28;20017;-71
2021/03/30 05:52:50;;;;;;;19.90;7.20;;;9.40;92.30;;;;;;5042433;28;20390;-71
2021/03/30 05:55:28;;;;;;;18.88;7.22;;;9.40;92.20;;;;;;5042667;28;20013;-72
2021/03/30 05:57:55;;;;;;;18.65;6.00;;;9.40;92.20;;;;;;5049744;28;20406;-71
2021/03/30 06:00:25;;;;;;;21.60;7.47;;;9.30;92.20;;;;;;5056642;28;20012;-72
2021/03/30 06:02:55;;;;;;;13.80;5.50;;;9.30;92.20;;;;;;5062523;28;20025;-71
2021/03/30 06:05:20;;;;;;;14.88;5.78;;;9.30;92.20;;;;;;5063628;28;20005;-72
2021/03/30 06:07:46;;;;;;;19.85;7.00;;;9.30;92.00;;;;;;5065843;28;20001;-71
2021/03/30 06:10:16;;;;;;;24.20;7.20;;;9.30;92.00;;;;;;5041786;28;20219;-72
2021/03/30 06:12:42;;;;;;;21.88;6.78;;;9.30;92.00;;;;;;5077268;28;25035;-72
2021/03/30 06:15:09;;;;;;;18.42;7.05;;;9.30;91.90;;;;;;5046195;28;20028;-71
2021/03/30 06:17:45;;;;;;;22.90;8.02;;;9.30;92.00;;;;;;5047519;28;20036;-72
2021/03/30 06:20:13;;;;;;;13.55;5.65;;;9.20;91.90;;;;;;5061659;28;20088;-71
2021/03/30 06:22:49;;;;;;;22.65;7.72;;;9.10;92.00;;;;;;5059281;28;20039;-73
2021/03/30 06:25:34;;;;;;;20.42;7.28;;;9.10;92.00;;;;;;5063518;28;20016;-72
2021/03/30 06:28:21;;;;;;;19.08;7.13;;;9.10;92.10;;;;;;5042514;28;20013;-71
2021/03/30 06:31:07;;;;;;;22.98;7.57;;;9.10;92.10;;;;;;5054932;28;20021;-73
2021/03/30 06:33:34;;;;;;;18.23;6.75;;;9.10;92.00;;;;;;5059114;28;20080;-72
2021/03/30 06:36:13;;;;;;;25.85;7.60;;;9.10;92.00;;;;;;5040966;28;20013;-72
2021/03/30 06:39:03;;;;;;;20.38;7.70;;;9.00;92.10;;;;;;5054030;28;20071;-72
2021/03/30 06:44:29;;;;;;;18.90;7.72;;;9.10;92.20;;;;;;5050578;28;20414;-72
2021/03/30 06:46:55;;;;;;;16.48;7.63;;;9.20;92.20;;;;;;5021918;28;20056;-72
2021/03/30 06:49:21;;;;;;;19.95;7.88;;;9.20;92.00;;;;;;5052720;28;20016;-72
2021/03/30 06:51:47;;;;;;;21.52;6.93;;;9.30;91.90;;;;;;5053576;28;20024;-72
2021/03/30 06:54:13;;;;;;;17.38;6.30;;;9.40;92.00;;;;;;5050762;28;20053;-72
2021/03/30 06:56:49;;;;;;;15.38;5.50;;;9.40;91.80;;;;;;5047284;28;20223;-72
2021/03/30 06:59:15;;;;;;;20.00;6.72;;;9.60;91.70;;;;;;5032432;28;20017;-72
2021/03/30 07:01:41;;;;;;;14.05;6.68;;;9.70;91.60;;;;;;5031372;28;20067;-73
2021/03/30 07:04:07;;;;;;;17.85;6.22;;;9.80;91.30;;;;;;5033026;28;20041;-71
2021/03/30 07:06:33;;;;;;;14.98;5.63;;;9.90;91.20;;;;;;5043039;28;20392;-72
2021/03/30 07:08:59;;;;;;;13.80;5.78;;;10.20;90.80;;;;;;5028883;28;20270;-71
2021/03/30 07:11:25;;;;;;;15.68;6.20;;;10.20;90.70;;;;;;5051760;28;20021;-73
2021/03/30 07:13:51;;;;;;;17.48;5.93;;;10.50;90.10;;;;;;5053287;28;20414;-73
2021/03/30 07:16:22;;;;;;;11.35;5.10;;;10.50;89.50;;;;;;5052273;28;20357;-73
2021/03/30 07:18:51;;;;;;;9.65;3.00;;;10.40;89.90;;;;;;5046887;28;20239;-72
2021/03/30 07:21:24;;;;;;;11.88;4.03;;;10.60;89.60;;;;;;5047620;28;20021;-71
2021/03/30 07:23:52;;;;;;;15.05;5.15;;;10.70;89.10;;;;;;5046591;28;20017;-71
2021/03/30 07:26:24;;;;;;;11.55;4.53;;;10.70;88.40;;;;;;5049889;28;20017;-72
2021/03/30 07:29:01;;;;;;;13.40;4.25;;;10.50;88.90;;;;;;5019712;28;20326;-73
2021/03/30 07:31:48;;;;;;;17.33;6.57;;;10.50;89.00;;;;;;5049001;28;20326;-73
2021/03/30 07:34:16;;;;;;;18.60;6.00;;;10.60;88.90;;;;;;5055185;28;20059;-73
2021/03/30 07:36:53;;;;;;;13.88;4.85;;;10.70;88.00;;;;;;5051807;28;20052;-73
2021/03/30 07:39:19;;;;;;;15.43;5.35;;;10.70;87.60;;;;;;5036866;28;20044;-73
2021/03/30 07:41:45;;;;;;;12.88;4.50;;;11.10;88.20;;;;;;5040546;28;20028;-73
2021/03/30 07:44:11;;;;;;;10.23;3.78;;;11.10;86.80;;;;;;5050044;28;20319;-73
2021/03/30 07:46:36;;;;;;;27.95;11.88;;;11.20;86.80;;;;;;5044121;28;20040;-73
2021/03/30 07:49:03;;;;;;;16.42;6.85;;;11.40;87.00;;;;;;5044921;28;20017;-74
2021/03/30 07:51:45;;;;;;;17.40;6.30;;;12.80;84.40;;;;;;5031410;28;20334;-71
2021/03/30 07:54:15;;;;;;;20.90;7.15;;;12.90;80.00;;;;;;5028515;28;20056;-71
2021/03/30 07:56:46;;;;;;;12.27;4.85;;;12.50;80.00;;;;;;5046263;28;20074;-73
2021/03/30 07:59:31;;;;;;;;;;;13.50;80.30;;;;;;5045590;28;20014;-71
2021/03/30 08:01:56;;;;;;;21.65;5.43;;;13.80;76.70;;;;;;5045951;28;19916;-72
2021/03/30 08:04:25;;;;;;;16.50;5.00;;;13.30;78.00;;;;;;5013771;28;20052;-71
2021/03/30 08:06:51;;;;;;;14.32;4.55;;;13.40;78.20;;;;;;5056009;28;20326;-72
2021/03/30 08:09:19;;;;;;;17.52;4.68;;;14.60;75.80;;;;;;5051969;28;20016;-71
2021/03/30 08:11:57;;;;;;;13.18;4.07;;;15.40;72.40;;;;;;5048743;28;20250;-71
2021/03/30 08:14:26;;;;;;;15.95;4.82;;;15.90;69.40;;;;;;5064087;28;20017;-71
2021/03/30 08:16:53;;;;;;;12.82;4.20;;;16.20;67.80;;;;;;5051395;28;20032;-71
2021/03/30 08:19:19;;;;;;;8.63;3.50;;;16.60;66.50;;;;;;5052620;28;20020;-71
2021/03/30 08:22:04;;;;;;;10.00;3.40;;;17.10;65.20;;;;;;5034104;28;20028;-72
2021/03/30 08:24:45;;;;;;;9.82;3.10;;;17.30;63.00;;;;;;5041371;28;20023;-72
2021/03/30 08:27:34;;;;;;;9.35;2.92;;;17.60;62.40;;;;;;5049497;28;20025;-72
2021/03/30 08:30:21;;;;;;;11.05;3.58;;;18.30;59.60;;;;;;5050663;28;20025;-71
2021/03/30 08:32:49;;;;;;;16.55;3.72;;;18.00;59.30;;;;;;5031623;28;20037;-72
2021/03/30 08:35:30;;;;;;;11.93;3.67;;;18.00;59.70;;;;;;5048662;28;20147;-72
2021/03/30 08:37:56;;;;;;;9.77;3.13;;;17.90;59.20;;;;;;5052331;28;20040;-71
2021/03/30 08:40:34;;;;;;;11.52;3.03;;;17.80;60.00;;;;;;5054915;28;20010;-73
2021/03/30 08:43:01;;;;;;;12.85;3.55;;;18.20;59.20;;;;;;5056693;28;20336;-71
2021/03/30 08:45:26;;;;;;;9.45;2.85;;;18.30;58.80;;;;;;5040694;28;20012;-72
2021/03/30 08:47:52;;;;;;;9.23;2.42;;;18.70;58.40;;;;;;5056198;28;20376;-71
2021/03/30 08:50:24;;;;;;;4.93;2.00;;;19.40;56.90;;;;;;5052812;28;20016;-72
2021/03/30 08:52:51;;;;;;;8.93;2.83;;;19.80;55.60;;;;;;5037161;28;20282;-71
2021/03/30 08:55:28;;;;;;;11.15;3.13;;;19.50;54.90;;;;;;5033651;28;20055;-71
2021/03/30 08:57:54;;;;;;;12.13;3.20;;;19.50;55.50;;;;;;5056095;28;20180;-71
2021/03/30 09:00:21;;;;;;;9.63;3.05;;;19.70;55.10;;;;;;5039874;28;20072;-72
2021/03/30 09:02:56;;;;;;;16.77;5.00;;;19.70;54.80;;;;;;5037009;28;20040;-72
2021/03/30 09:05:22;;;;;;;12.43;4.50;;;19.10;55.10;;;;;;5051436;28;20257;-72
2021/03/30 09:07:48;;;;;;;12.25;3.80;;;19.40;55.60;;;;;;5030928;28;20055;-72
2021/03/30 09:10:15;;;;;;;13.10;4.72;;;19.40;55.70;;;;;;5049809;28;20361;-71
2021/03/30 09:12:40;;;;;;;15.80;5.10;;;19.10;55.80;;;;;;5051635;28;20016;-72
2021/03/30 09:15:11;;;;;;;11.27;3.28;;;18.70;56.70;;;;;;5049928;28;20075;-72
2021/03/30 09:17:59;;;;;;;8.82;3.20;;;19.10;56.80;;;;;;5037462;28;20040;-71
2021/03/30 09:20:25;;;;;;;9.50;2.95;;;19.80;55.70;;;;;;5050848;28;20017;-71
2021/03/30 09:22:53;;;;;;;15.93;4.30;;;19.80;54.80;;;;;;5050137;28;20333;-72
2021/03/30 09:27:57;;;;;;;10.60;3.75;;;19.10;55.70;;;;;;5050821;28;20318;-71
2021/03/30 09:30:23;;;;;;;14.20;4.72;;;19.40;55.60;;;;;;5048570;28;20028;-72
2021/03/30 09:32:50;;;;;;;16.38;4.50;;;19.10;55.80;;;;;;5045143;28;20024;-73
2021/03/30 09:35:26;;;;;;;10.20;4.05;;;19.40;55.40;;;;;;5057834;28;20076;-74
2021/03/30 09:38:02;;;;;;;7.80;3.05;;;19.30;55.90;;;;;;5056499;28;20019;-73
2021/03/30 09:40:42;;;;;;;8.30;2.47;;;19.70;55.60;;;;;;5052666;28;20013;-73
2021/03/30 09:43:10;;;;;;;11.20;3.67;;;20.10;54.60;;;;;;5022969;28;20319;-73
2021/03/30 09:45:38;;;;;;;12.25;3.80;;;20.20;53.80;;;;;;5042150;28;20024;-73
2021/03/30 09:48:09;;;;;;;11.57;3.60;;;20.10;53.90;;;;;;5058368;28;20021;-72
2021/03/30 09:50:35;;;;;;;10.82;3.50;;;19.90;54.00;;;;;;5043971;28;20025;-72
2021/03/30 09:53:03;;;;;;;14.32;4.10;;;19.50;55.60;;;;;;5038079;28;20151;-72
2021/03/30 09:55:29;;;;;;;9.73;3.17;;;19.30;55.90;;;;;;5030703;28;20198;-72
2021/03/30 09:58:03;;;;;;;13.07;3.85;;;19.60;55.20;;;;;;5042536;28;20028;-73
2021/03/30 10:00:30;;;;;;;11.85;3.67;;;19.90;54.70;;;;;;5038153;28;20012;-71
2021/03/30 10:02:55;;;;;;;11.48;3.40;;;20.40;53.80;;;;;;5057911;28;20021;-72
2021/03/30 10:05:21;;;;;;;12.50;3.80;;;20.00;53.70;;;;;;5043204;28;20056;-72
2021/03/30 10:07:47;;;;;;;13.48;3.80;;;19.50;54.60;;;;;;5044590;28;20218;-71
2021/03/30 10:10:13;;;;;;;17.08;5.65;;;19.30;55.40;;;;;;5054795;28;20020;-73
2021/03/30 10:12:51;;;;;;;12.98;3.92;;;19.10;55.80;;;;;;5053260;28;20067;-72
2021/03/30 10:15:16;;;;;;;9.65;3.72;;;19.20;56.80;;;;;;5044777;28;20463;-72
2021/03/30 10:17:42;;;;;;;10.77;3.85;;;19.50;55.80;;;;;;5029482;28;20040;-72
2021/03/30 10:20:12;;;;;;;13.80;4.30;;;19.70;55.10;;;;;;5037407;28;20594;-71
2021/03/30 10:22:38;;;;;;;11.75;3.67;;;19.30;55.30;;;;;;5040445;28;20393;-71
2021/03/30 10:25:07;;;;;;;12.43;3.60;;;19.20;56.10;;;;;;5035155;28;20110;-72
2021/03/30 10:27:35;;;;;;;10.45;3.55;;;19.20;56.30;;;;;;5040698;28;20071;-73
2021/03/30 10:30:00;;;;;;;9.85;3.45;;;19.10;56.30;;;;;;5037485;28;20329;-72
2021/03/30 10:32:30;;;;;;;5.93;2.45;;;19.00;56.60;;;;;;5016127;28;20044;-71
2021/03/30 10:34:56;;;;;;;11.03;3.57;;;19.60;56.00;;;;;;5031401;28;20005;-72
2021/03/30 10:37:22;;;;;;;9.95;3.30;;;19.40;55.20;;;;;;5015007;28;20100;-71
2021/03/30 10:39:47;;;;;;;13.15;3.20;;;19.50;56.00;;;;;;5040231;28;20015;-72
2021/03/30 10:42:15;;;;;;;7.50;2.83;;;19.60;56.10;;;;;;5050450;28;20039;-72
2021/03/30 10:44:42;;;;;;;11.60;3.25;;;20.10;55.60;;;;;;5043025;28;20105;-71
2021/03/30 10:47:22;;;;;;;12.13;3.72;;;19.80;55.40;;;;;;5052213;28;20092;-72
2021/03/30 10:49:51;;;;;;;17.30;5.40;;;19.80;55.60;;;;;;5047290;28;20017;-73
2021/03/30 10:52:20;;;;;;;11.18;3.33;;;19.60;56.00;;;;;;5031376;28;20024;-74
2021/03/30 10:54:48;;;;;;;10.57;3.20;;;19.80;55.70;;;;;;5040223;28;20060;-75
2021/03/30 10:57:16;;;;;;;9.32;2.42;;;19.60;55.90;;;;;;5030709;28;20064;-73
2021/03/30 10:59:44;;;;;;;6.03;1.98;;;19.90;55.90;;;;;;5052921;28;20029;-72
2021/03/30 11:02:11;;;;;;;18.33;5.60;;;20.10;55.50;;;;;;5041974;28;20009;-73
2021/03/30 11:04:37;;;;;;;17.65;5.18;;;20.00;55.10;;;;;;5019629;28;20021;-73
2021/03/30 11:07:04;;;;;;;14.32;4.32;;;19.50;55.30;;;;;;5028274;28;20242;-72
2021/03/30 11:09:30;;;;;;;9.68;3.22;;;18.50;56.90;;;;;;5058059;28;20004;-73
2021/03/30 11:11:55;;;;;;;9.23;2.67;;;17.30;59.70;;;;;;5033244;28;20036;-72
2021/03/30 11:14:22;;;;;;;6.80;2.22;;;17.10;61.30;;;;;;5051399;28;20105;-74
2021/03/30 11:16:48;;;;;;;7.28;2.88;;;17.30;61.80;;;;;;5036920;28;20072;-74
2021/03/30 11:19:14;;;;;;;9.70;2.78;;;17.50;61.50;;;;;;5037163;28;20211;-72
2021/03/30 11:21:40;;;;;;;6.30;2.40;;;17.60;60.30;;;;;;5038550;28;20017;-72
2021/03/30 11:24:07;;;;;;;10.95;2.92;;;17.50;60.30;;;;;;5051882;28;20039;-74
2021/03/30 11:26:34;;;;;;;10.05;2.70;;;17.40;59.80;;;;;;5057814;28;20025;-72
2021/03/30 11:29:01;;;;;;;11.88;3.13;;;17.00;61.40;;;;;;5022700;28;20016;-74
2021/03/30 11:31:40;;;;;;;7.82;2.70;;;17.10;61.90;;;;;;5057529;28;20035;-73
2021/03/30 11:34:15;;;;;;;7.15;2.40;;;17.30;61.60;;;;;;5059884;28;20013;-74
2021/03/30 11:36:42;;;;;;;7.88;3.08;;;17.50;61.10;;;;;;5040923;28;20009;-73
2021/03/30 11:39:08;;;;;;;6.68;2.20;;;17.60;60.70;;;;;;5064194;28;20022;-72
2021/03/30 11:41:34;;;;;;;5.35;2.17;;;17.70;60.60;;;;;;5059973;28;20334;-72
2021/03/30 11:43:59;;;;;;;5.15;2.40;;;17.70;60.50;;;;;;5058733;28;20027;-72
2021/03/30 11:46:25;;;;;;;4.40;2.10;;;17.80;60.00;;;;;;5053450;28;20080;-75
2021/03/30 11:48:51;;;;;;;4.22;1.60;;;17.70;60.10;;;;;;5039209;28;20364;-73
2021/03/30 11:51:16;;;;;;;4.90;1.80;;;17.80;60.20;;;;;;5057531;28;20063;-76
2021/03/30 11:53:44;;;;;;;6.30;1.35;;;17.80;59.90;;;;;;5044674;28;20511;-74
2021/03/30 11:56:11;;;;;;;12.02;5.93;;;17.90;60.00;;;;;;5040264;28;20228;-74
2021/03/30 11:58:37;;;;;;;10.10;3.10;;;17.70;59.80;;;;;;5041366;28;20016;-75
2021/03/30 12:01:06;;;;;;;7.63;2.35;;;17.20;60.30;;;;;;5032444;28;20056;-74
2021/03/30 12:03:34;;;;;;;7.60;2.20;;;16.90;61.80;;;;;;5059634;28;20059;-73
2021/03/30 12:06:00;;;;;;;9.43;2.60;;;16.70;62.30;;;;;;5057330;28;20001;-73
2021/03/30 12:08:25;;;;;;;6.22;1.83;;;16.80;63.20;;;;;;5045657;28;20047;-74
2021/03/30 12:10:51;;;;;;;6.97;2.28;;;17.10;63.10;;;;;;5062888;28;20023;-73
2021/03/30 12:13:17;;;;;;;9.35;1.95;;;17.30;62.20;;;;;;5024134;28;20005;-73
2021/03/30 12:15:42;;;;;;;6.22;1.88;;;17.40;61.50;;;;;;5058093;28;20037;-74
2021/03/30 12:18:08;;;;;;;6.50;2.05;;;17.40;61.40;;;;;;5057796;28;20021;-74
2021/03/30 12:20:34;;;;;;;5.28;1.80;;;17.40;61.10;;;;;;5057120;28;20017;-73
2021/03/30 12:22:59;;;;;;;5.78;1.75;;;17.50;61.10;;;;;;5056957;28;20013;-74
2021/03/30 12:25:25;;;;;;;7.22;2.10;;;17.40;61.00;;;;;;5043757;28;20368;-73
2021/03/30 12:27:50;;;;;;;9.70;2.50;;;17.40;60.60;;;;;;5060395;28;20037;-73
2021/03/30 12:30:17;;;;;;;8.40;2.33;;;17.20;61.20;;;;;;5059360;28;20136;-72
2021/03/30 12:32:42;;;;;;;6.55;2.60;;;17.20;61.60;;;;;;5059788;28;20024;-72
2021/03/30 12:35:08;;;;;;;7.68;2.20;;;17.00;61.80;;;;;;5028404;28;20079;-72
2021/03/30 12:37:34;;;;;;;7.93;2.28;;;17.00;63.00;;;;;;5055732;28;20076;-73
2021/03/30 12:40:00;;;;;;;6.65;2.45;;;17.10;62.50;;;;;;5047424;28;20056;-72
2021/03/30 12:42:25;;;;;;;6.28;2.40;;;17.10;62.30;;;;;;5060473;28;20076;-72
2021/03/30 12:44:51;;;;;;;5.13;1.80;;;17.30;62.30;;;;;;5059673;28;20521;-72
2021/03/30 12:47:17;;;;;;;6.03;2.00;;;17.60;61.50;;;;;;5058076;28;20029;-72
2021/03/30 12:49:42;;;;;;;8.20;2.45;;;17.60;61.00;;;;;;5058684;28;20035;-72
2021/03/30 12:52:08;;;;;;;9.38;2.78;;;17.40;61.20;;;;;;5052780;28;20018;-72
2021/03/30 12:54:34;;;;;;;9.98;2.53;;;17.30;61.80;;;;;;5033874;28;20139;-72